createdAt,value
2018-06-04T00:00:23.808Z,19.58
2018-06-04T00:01:23.818Z,19.71
2018-06-04T00:02:23.829Z,19.87
2018-06-04T00:03:23.832Z,19.94
2018-06-04T00:04:23.840Z,19.88
2018-06-04T00:05:23.848Z,19.99
2018-06-04T00:06:23.856Z,19.84
2018-06-04T00:07:23.866Z,19.88
2018-06-04T00:08:23.873Z,19.76
2018-06-04T00:09:23.882Z,19.69
2018-06-04T00:10:23.907Z,19.77
2018-06-04T00:11:23.898Z,19.78
2018-06-04T00:12:23.902Z,19.58
2018-06-04T00:13:23.911Z,19.41
2018-06-04T00:14:23.933Z,19.56
2018-06-04T00:15:23.931Z,19.61
2018-06-04T00:16:23.942Z,19.46
2018-06-04T00:17:23.948Z,19.63
2018-06-04T00:18:23.956Z,19.55
2018-06-04T00:19:23.963Z,19.65
2018-06-04T00:20:23.972Z,19.58
2018-06-04T00:21:23.975Z,19.44
2018-06-04T00:22:23.995Z,19.28
2018-06-04T00:23:23.991Z,19.22
2018-06-04T00:24:24.003Z,19.40
2018-06-04T00:25:24.016Z,19.59
2018-06-04T00:26:24.022Z,19.63
2018-06-04T00:27:24.026Z,19.65
2018-06-04T00:28:24.033Z,19.66
2018-06-04T00:29:24.040Z,19.62
2018-06-04T00:30:24.059Z,19.55
2018-06-04T00:31:24.058Z,19.47
2018-06-04T00:32:24.118Z,19.43
2018-06-04T00:33:24.085Z,19.47
2018-06-04T00:34:24.075Z,19.48
2018-06-04T00:35:24.082Z,19.55
2018-06-04T00:36:24.096Z,19.51
2018-06-04T00:37:24.098Z,19.22
2018-06-04T00:38:24.113Z,19.36
2018-06-04T00:39:24.113Z,19.28
2018-06-04T00:40:24.156Z,19.48
2018-06-04T00:41:24.130Z,19.50
2018-06-04T00:42:24.138Z,19.66
2018-06-04T00:43:24.149Z,19.58
2018-06-04T00:44:24.151Z,19.59
2018-06-04T00:45:24.163Z,19.44
2018-06-04T00:46:24.173Z,19.21
2018-06-04T00:47:24.175Z,19.43
2018-06-04T00:48:24.187Z,19.44
2018-06-04T00:49:24.199Z,19.43
2018-06-04T00:50:24.212Z,19.48
2018-06-04T00:51:24.206Z,19.36
2018-06-04T00:52:24.217Z,19.32
2018-06-04T00:53:24.224Z,19.13
2018-06-04T00:54:24.232Z,19.26
2018-06-04T00:55:24.247Z,19.04
2018-06-04T00:56:24.243Z,19.18
2018-06-04T00:57:24.258Z,19.36
2018-06-04T00:58:24.259Z,19.11
2018-06-04T00:59:24.268Z,19.08
2018-06-04T01:00:24.276Z,19.08
2018-06-04T01:01:24.286Z,19.11
2018-06-04T01:02:24.293Z,19.14
2018-06-04T01:03:24.300Z,19.10
2018-06-04T01:04:24.310Z,19.32
2018-06-04T01:05:24.319Z,19.36
2018-06-04T01:06:24.325Z,19.29
2018-06-04T01:07:24.328Z,19.23
2018-06-04T01:08:24.339Z,19.29
2018-06-04T01:09:24.355Z,19.25
2018-06-04T01:10:24.354Z,19.26
2018-06-04T01:11:24.366Z,19.19
2018-06-04T01:12:24.366Z,19.33
2018-06-04T01:13:24.384Z,19.31
2018-06-04T01:14:24.384Z,19.19
2018-06-04T01:15:24.393Z,19.25
2018-06-04T01:16:24.404Z,19.31
2018-06-04T01:17:24.404Z,19.32
2018-06-04T01:18:24.422Z,19.37
2018-06-04T01:19:24.435Z,19.25
2018-06-04T01:20:24.427Z,19.06
2018-06-04T01:21:24.438Z,19.06
2018-06-04T01:22:24.444Z,19.25
2018-06-04T01:23:24.463Z,19.36
2018-06-04T01:24:24.461Z,19.41
2018-06-04T01:25:24.474Z,19.37
2018-06-04T01:26:24.475Z,19.07
2018-06-04T01:27:24.485Z,19.04
2018-06-04T01:28:24.490Z,19.23
2018-06-04T01:29:24.519Z,19.18
2018-06-04T01:30:24.510Z,19.10
2018-06-04T01:31:24.508Z,18.98
2018-06-04T01:32:24.532Z,18.84
2018-06-04T01:33:24.539Z,19.04
2018-06-04T01:34:24.536Z,19.10
2018-06-04T01:35:24.542Z,19.02
2018-06-04T01:36:24.568Z,19.18
2018-06-04T01:37:24.563Z,18.92
2018-06-04T01:38:24.564Z,19.04
2018-06-04T01:39:24.571Z,18.99
2018-06-04T01:40:24.576Z,18.90
2018-06-04T01:41:24.615Z,18.80
2018-06-04T01:42:24.589Z,18.72
2018-06-04T01:43:24.604Z,18.72
2018-06-04T01:44:24.609Z,18.67
2018-06-04T01:45:24.622Z,18.69
2018-06-04T01:46:24.624Z,18.72
2018-06-04T01:47:24.640Z,18.90
2018-06-04T01:48:24.642Z,18.87
2018-06-04T01:49:24.642Z,18.92
2018-06-04T01:50:24.655Z,18.84
2018-06-04T01:51:24.667Z,18.84
2018-06-04T01:52:24.668Z,18.69
2018-06-04T01:53:24.671Z,18.80
2018-06-04T01:54:24.679Z,18.75
2018-06-04T01:55:24.690Z,18.65
2018-06-04T01:56:24.692Z,18.67
2018-06-04T01:57:24.707Z,18.66
2018-06-04T01:58:24.709Z,18.81
2018-06-04T01:59:24.720Z,18.88
2018-06-04T02:00:24.726Z,18.92
2018-06-04T02:01:24.761Z,18.92
2018-06-04T02:02:24.751Z,18.92
2018-06-04T02:03:24.751Z,18.98
2018-06-04T02:04:24.762Z,18.66
2018-06-04T02:05:24.758Z,18.75
2018-06-04T02:06:24.772Z,18.76
2018-06-04T02:07:24.776Z,18.72
2018-06-04T02:08:24.778Z,18.66
2018-06-04T02:09:24.789Z,18.69
2018-06-04T02:10:24.807Z,18.57
2018-06-04T02:11:24.800Z,18.72
2018-06-04T02:12:24.825Z,18.81
2018-06-04T02:13:24.844Z,18.90
2018-06-04T02:14:24.836Z,18.87
2018-06-04T02:15:24.838Z,18.88
2018-06-04T02:16:24.839Z,18.95
2018-06-04T02:17:24.843Z,18.94
2018-06-04T02:18:24.862Z,18.78
2018-06-04T02:19:24.855Z,18.67
2018-06-04T02:20:24.866Z,18.70
2018-06-04T02:21:24.874Z,18.72
2018-06-04T02:22:24.880Z,18.69
2018-06-04T02:23:24.896Z,18.63
2018-06-04T02:24:24.901Z,18.82
2018-06-04T02:25:24.912Z,18.82
2018-06-04T02:26:24.937Z,18.66
2018-06-04T02:27:24.920Z,18.54
2018-06-04T02:28:24.921Z,18.52
2018-06-04T02:29:24.932Z,18.69
2018-06-04T02:30:24.935Z,18.57
2018-06-04T02:31:24.947Z,18.42
2018-06-04T02:32:24.948Z,18.48
2018-06-04T02:33:24.965Z,18.66
2018-06-04T02:34:24.969Z,18.70
2018-06-04T02:35:24.980Z,18.66
2018-06-04T02:36:24.988Z,18.60
2018-06-04T02:37:24.991Z,18.55
2018-06-04T02:38:25.002Z,18.62
2018-06-04T02:39:25.000Z,18.58
2018-06-04T02:40:25.013Z,18.52
2018-06-04T02:41:25.030Z,18.48
2018-06-04T02:42:25.022Z,18.44
2018-06-04T02:43:25.027Z,18.55
2018-06-04T02:44:25.053Z,18.55
2018-06-04T02:45:25.040Z,18.50
2018-06-04T02:46:25.062Z,18.55
2018-06-04T02:47:25.054Z,18.45
2018-06-04T02:48:25.071Z,18.50
2018-06-04T02:49:25.072Z,18.36
2018-06-04T02:50:25.078Z,18.39
2018-06-04T02:51:25.090Z,18.51
2018-06-04T02:52:25.095Z,18.50
2018-06-04T02:53:25.097Z,18.55
2018-06-04T02:54:25.120Z,18.66
2018-06-04T02:55:25.118Z,18.60
2018-06-04T02:56:25.133Z,18.55
2018-06-04T02:57:25.136Z,18.39
2018-06-04T02:58:25.129Z,18.51
2018-06-04T02:59:25.142Z,18.39
2018-06-04T03:00:25.144Z,18.54
2018-06-04T03:01:25.179Z,18.44
2018-06-04T03:02:25.184Z,18.36
2018-06-04T03:03:25.169Z,18.54
2018-06-04T03:04:25.187Z,18.54
2018-06-04T03:05:25.182Z,18.37
2018-06-04T03:06:25.198Z,18.37
2018-06-04T03:07:25.192Z,18.21
2018-06-04T03:08:25.209Z,18.21
2018-06-04T03:09:25.223Z,18.32
2018-06-04T03:10:25.222Z,18.21
2018-06-04T03:11:25.222Z,18.15
2018-06-04T03:12:25.231Z,18.18
2018-06-04T03:13:25.235Z,18.37
2018-06-04T03:14:25.244Z,18.50
2018-06-04T03:15:25.247Z,18.57
2018-06-04T03:16:25.273Z,18.54
2018-06-04T03:17:25.261Z,18.58
2018-06-04T03:18:25.274Z,18.37
2018-06-04T03:19:25.281Z,18.45
2018-06-04T03:20:25.292Z,18.65
2018-06-04T03:21:25.295Z,18.52
2018-06-04T03:22:25.296Z,18.25
2018-06-04T03:23:25.306Z,18.21
2018-06-04T03:24:25.321Z,18.39
2018-06-04T03:25:25.319Z,18.33
2018-06-04T03:26:25.330Z,18.18
2018-06-04T03:27:25.331Z,18.36
2018-06-04T03:28:25.337Z,18.33
2018-06-04T03:29:25.344Z,18.27
2018-06-04T03:30:25.352Z,18.21
2018-06-04T03:31:25.364Z,18.14
2018-06-04T03:32:25.367Z,18.03
2018-06-04T03:33:25.377Z,18.23
2018-06-04T03:34:25.379Z,18.37
2018-06-04T03:35:25.384Z,18.36
2018-06-04T03:36:25.400Z,18.25
2018-06-04T03:37:25.402Z,18.18
2018-06-04T03:38:25.406Z,18.27
2018-06-04T03:39:25.415Z,18.39
2018-06-04T03:40:25.415Z,18.50
2018-06-04T03:41:25.431Z,18.44
2018-06-04T03:42:25.428Z,18.12
2018-06-04T03:43:25.436Z,18.21
2018-06-04T03:44:25.512Z,18.27
2018-06-04T03:45:25.453Z,18.36
2018-06-04T03:46:25.470Z,18.41
2018-06-04T03:47:25.460Z,18.35
2018-06-04T03:48:25.471Z,18.20
2018-06-04T03:49:25.519Z,18.17
2018-06-04T03:50:25.488Z,18.12
2018-06-04T03:51:25.516Z,18.18
2018-06-04T03:52:25.493Z,18.05
2018-06-04T03:53:25.504Z,18.08
2018-06-04T03:54:25.517Z,18.02
2018-06-04T03:55:25.516Z,18.17
2018-06-04T03:56:25.520Z,18.18
2018-06-04T03:57:25.525Z,18.33
2018-06-04T03:58:25.541Z,18.29
2018-06-04T03:59:25.553Z,18.33
2018-06-04T04:00:25.549Z,18.15
2018-06-04T04:01:25.562Z,18.02
2018-06-04T04:02:25.560Z,17.99
2018-06-04T04:03:25.567Z,18.20
2018-06-04T04:04:25.585Z,17.95
2018-06-04T04:05:25.581Z,17.96
2018-06-04T04:06:25.590Z,17.86
2018-06-04T04:07:25.598Z,18.02
2018-06-04T04:08:25.601Z,18.29
2018-06-04T04:09:25.621Z,18.14
2018-06-04T04:10:25.618Z,18.20
2018-06-04T04:11:25.628Z,18.15
2018-06-04T04:12:25.632Z,18.17
2018-06-04T04:13:25.644Z,18.39
2018-06-04T04:14:25.654Z,18.25
2018-06-04T04:15:25.653Z,18.26
2018-06-04T04:16:25.656Z,18.15
2018-06-04T04:17:25.664Z,18.23
2018-06-04T04:18:25.668Z,18.29
2018-06-04T04:19:25.697Z,18.37
2018-06-04T04:20:25.686Z,18.32
2018-06-04T04:21:25.692Z,18.26
2018-06-04T04:22:25.704Z,18.30
2018-06-04T04:23:25.708Z,18.15
2018-06-04T04:24:25.709Z,18.23
2018-06-04T04:25:25.715Z,18.42
2018-06-04T04:26:25.723Z,18.14
2018-06-04T04:27:25.727Z,18.15
2018-06-04T04:28:25.736Z,18.42
2018-06-04T04:29:25.764Z,18.39
2018-06-04T04:30:25.750Z,18.35
2018-06-04T04:31:25.753Z,18.23
2018-06-04T04:32:25.766Z,18.26
2018-06-04T04:33:25.772Z,18.32
2018-06-04T04:34:25.776Z,18.37
2018-06-04T04:35:25.782Z,18.55
2018-06-04T04:36:25.790Z,18.73
2018-06-04T04:37:25.798Z,18.57
2018-06-04T04:38:25.803Z,18.60
2018-06-04T04:39:25.809Z,18.52
2018-06-04T04:40:25.820Z,18.66
2018-06-04T04:41:25.823Z,18.72
2018-06-04T04:42:25.845Z,18.87
2018-06-04T04:43:25.852Z,18.91
2018-06-04T04:44:25.855Z,18.90
2018-06-04T04:45:25.848Z,18.88
2018-06-04T04:46:25.861Z,18.88
2018-06-04T04:47:25.863Z,18.82
2018-06-04T04:48:25.873Z,18.99
2018-06-04T04:49:25.875Z,19.00
2018-06-04T04:50:25.897Z,18.91
2018-06-04T04:51:25.890Z,18.95
2018-06-04T04:52:25.900Z,18.85
2018-06-04T04:53:25.908Z,19.02
2018-06-04T04:54:25.911Z,18.92
2018-06-04T04:55:25.988Z,18.88
2018-06-04T04:56:25.931Z,18.95
2018-06-04T04:57:25.934Z,18.92
2018-06-04T04:58:25.939Z,19.07
2018-06-04T04:59:25.945Z,19.13
2018-06-04T05:00:25.956Z,19.14
2018-06-04T05:01:25.990Z,19.18
2018-06-04T05:02:25.969Z,19.16
2018-06-04T05:03:25.978Z,19.26
2018-06-04T05:04:25.982Z,19.21
2018-06-04T05:05:25.987Z,19.33
2018-06-04T05:06:26.021Z,19.36
2018-06-04T05:07:26.002Z,19.41
2018-06-04T05:08:26.016Z,19.46
2018-06-04T05:09:26.026Z,19.46
2018-06-04T05:10:26.040Z,19.50
2018-06-04T05:11:26.044Z,19.56
2018-06-04T05:12:26.046Z,19.56
2018-06-04T05:13:26.041Z,19.66
2018-06-04T05:14:26.055Z,19.65
2018-06-04T05:15:26.055Z,19.66
2018-06-04T05:16:26.066Z,19.73
2018-06-04T05:17:26.075Z,19.80
2018-06-04T05:18:26.084Z,19.83
2018-06-04T05:19:26.085Z,19.86
2018-06-04T05:20:26.092Z,19.88
2018-06-04T05:21:26.104Z,19.91
2018-06-04T05:22:26.112Z,19.87
2018-06-04T05:23:26.116Z,19.88
2018-06-04T05:24:26.127Z,19.87
2018-06-04T05:25:26.130Z,20.01
2018-06-04T05:26:26.138Z,19.88
2018-06-04T05:27:26.152Z,19.87
2018-06-04T05:28:26.151Z,19.98
2018-06-04T05:29:26.163Z,20.03
2018-06-04T05:30:26.201Z,19.98
2018-06-04T05:31:26.173Z,19.95
2018-06-04T05:32:26.187Z,20.03
2018-06-04T05:33:26.184Z,20.08
2018-06-04T05:34:26.221Z,20.03
2018-06-04T05:35:26.200Z,20.08
2018-06-04T05:36:26.376Z,20.13
2018-06-04T05:37:26.220Z,20.23
2018-06-04T05:38:26.239Z,20.10
2018-06-04T05:39:26.231Z,20.18
2018-06-04T05:40:26.280Z,20.16
2018-06-04T05:41:26.261Z,20.28
2018-06-04T05:42:26.313Z,20.32
2018-06-04T05:43:26.261Z,20.41
2018-06-04T05:44:26.280Z,20.26
2018-06-04T05:45:26.319Z,20.41
2018-06-04T05:46:26.288Z,20.36
2018-06-04T05:47:26.293Z,20.42
2018-06-04T05:48:26.319Z,20.43
2018-06-04T05:49:26.305Z,20.48
2018-06-04T05:50:26.331Z,20.52
2018-06-04T05:51:26.325Z,20.50
2018-06-04T05:52:26.332Z,20.72
2018-06-04T05:53:26.341Z,20.54
2018-06-04T05:54:27.702Z,20.70
2018-06-04T05:55:26.355Z,20.62
2018-06-04T05:56:26.366Z,20.67
2018-06-04T05:57:26.367Z,20.79
2018-06-04T05:58:26.379Z,20.73
2018-06-04T05:59:26.389Z,20.72
2018-06-04T06:00:26.395Z,20.85
2018-06-04T06:01:26.401Z,20.80
2018-06-04T06:02:26.408Z,20.69
2018-06-04T06:03:26.421Z,20.70
2018-06-04T06:04:26.433Z,20.72
2018-06-04T06:05:26.435Z,20.73
2018-06-04T06:06:26.438Z,20.74
2018-06-04T06:07:26.448Z,20.69
2018-06-04T06:08:26.488Z,20.74
2018-06-04T06:09:26.465Z,20.84
2018-06-04T06:10:26.472Z,20.87
2018-06-04T06:11:26.478Z,20.88
2018-06-04T06:12:26.487Z,20.82
2018-06-04T06:13:26.501Z,20.79
2018-06-04T06:14:26.562Z,20.84
2018-06-04T06:15:26.515Z,20.91
2018-06-04T06:16:26.523Z,20.98
2018-06-04T06:17:26.529Z,21.06
2018-06-04T06:18:26.536Z,21.06
2018-06-04T06:19:26.620Z,21.06
2018-06-04T06:20:26.555Z,21.10
2018-06-04T06:21:26.559Z,21.21
2018-06-04T06:22:26.568Z,21.17
2018-06-04T06:23:26.575Z,21.19
2018-06-04T06:24:26.588Z,21.19
2018-06-04T06:25:26.702Z,21.22
2018-06-04T06:26:26.620Z,21.25
2018-06-04T06:27:26.612Z,21.21
2018-06-04T06:28:26.621Z,21.21
2018-06-04T06:29:26.628Z,21.32
2018-06-04T06:30:26.636Z,21.29
2018-06-04T06:31:26.641Z,21.43
2018-06-04T06:32:26.652Z,21.52
2018-06-04T06:33:26.662Z,21.47
2018-06-04T06:34:26.668Z,21.49
2018-06-04T06:35:26.679Z,21.47
2018-06-04T06:36:26.686Z,21.49
2018-06-04T06:37:26.695Z,21.47
2018-06-04T06:38:26.702Z,21.59
2018-06-04T06:39:26.708Z,21.54
2018-06-04T06:40:26.722Z,21.58
2018-06-04T06:41:26.732Z,21.58
2018-06-04T06:42:26.734Z,21.61
2018-06-04T06:43:26.745Z,21.65
2018-06-04T06:44:26.755Z,21.59
2018-06-04T06:45:26.766Z,21.64
2018-06-04T06:46:26.772Z,21.71
2018-06-04T06:47:26.782Z,21.82
2018-06-04T06:48:26.788Z,21.79
2018-06-04T06:49:26.794Z,21.83
2018-06-04T06:50:26.802Z,21.91
2018-06-04T06:51:26.817Z,21.80
2018-06-04T06:52:26.838Z,21.80
2018-06-04T06:53:26.830Z,21.91
2018-06-04T06:54:26.842Z,21.91
2018-06-04T06:55:26.899Z,21.88
2018-06-04T06:56:26.862Z,21.83
2018-06-04T06:57:26.866Z,21.94
2018-06-04T06:58:26.876Z,21.99
2018-06-04T06:59:26.882Z,22.00
2018-06-04T07:00:26.891Z,22.00
2018-06-04T07:01:26.911Z,21.91
2018-06-04T07:02:26.907Z,21.99
2018-06-04T07:03:26.917Z,22.05
2018-06-04T07:04:26.929Z,22.00
2018-06-04T07:05:26.934Z,22.09
2018-06-04T07:06:26.948Z,22.12
2018-06-04T07:07:26.967Z,22.17
2018-06-04T07:08:26.963Z,22.25
2018-06-04T07:09:26.971Z,22.24
2018-06-04T07:10:26.978Z,22.24
2018-06-04T07:11:26.991Z,22.27
2018-06-04T07:12:27.003Z,22.28
2018-06-04T07:13:27.031Z,22.24
2018-06-04T07:14:27.076Z,22.33
2018-06-04T07:15:27.026Z,22.33
2018-06-04T07:16:27.037Z,22.36
2018-06-04T07:17:27.043Z,22.43
2018-06-04T07:18:27.054Z,22.55
2018-06-04T07:19:27.069Z,22.45
2018-06-04T07:20:27.078Z,22.61
2018-06-04T07:21:27.108Z,22.58
2018-06-04T07:22:27.116Z,22.60
2018-06-04T07:23:27.096Z,22.64
2018-06-04T07:24:27.125Z,22.60
2018-06-04T07:25:27.119Z,22.58
2018-06-04T07:26:27.134Z,22.72
2018-06-04T07:27:27.140Z,22.68
2018-06-04T07:28:27.144Z,22.65
2018-06-04T07:29:27.154Z,22.73
2018-06-04T07:30:27.180Z,22.64
2018-06-04T07:31:27.182Z,22.77
2018-06-04T07:32:27.181Z,22.76
2018-06-04T07:33:27.193Z,22.82
2018-06-04T07:34:27.200Z,22.82
2018-06-04T07:35:27.209Z,22.85
2018-06-04T07:36:27.235Z,22.83
2018-06-04T07:37:27.229Z,22.97
2018-06-04T07:38:27.259Z,22.82
2018-06-04T07:39:27.252Z,23.01
2018-06-04T07:40:27.344Z,22.95
2018-06-04T07:41:27.303Z,23.01
2018-06-04T07:42:27.276Z,23.04
2018-06-04T07:43:27.290Z,23.02
2018-06-04T07:44:27.322Z,22.98
2018-06-04T07:45:27.311Z,23.01
2018-06-04T07:46:27.315Z,23.04
2018-06-04T07:47:27.325Z,23.07
2018-06-04T07:48:27.331Z,23.07
2018-06-04T07:49:27.344Z,23.19
2018-06-04T07:50:27.360Z,23.22
2018-06-04T07:51:27.409Z,23.22
2018-06-04T07:52:27.382Z,23.33
2018-06-04T07:53:27.389Z,23.40
2018-06-04T07:54:27.398Z,23.38
2018-06-04T07:55:27.402Z,23.39
2018-06-04T07:56:27.455Z,23.51
2018-06-04T07:57:27.421Z,23.51
2018-06-04T07:58:27.759Z,23.47
2018-06-04T07:59:27.449Z,23.35
2018-06-04T08:00:27.451Z,23.42
2018-06-04T08:01:27.460Z,23.48
2018-06-04T08:02:27.472Z,23.55
2018-06-04T08:03:27.484Z,23.54
2018-06-04T08:04:27.557Z,23.50
2018-06-04T08:05:27.502Z,23.66
2018-06-04T08:06:27.535Z,23.69
2018-06-04T08:07:27.519Z,23.66
2018-06-04T08:08:27.536Z,23.68
2018-06-04T08:09:27.540Z,23.75
2018-06-04T08:10:27.550Z,23.78
2018-06-04T08:11:27.568Z,23.75
2018-06-04T08:12:27.572Z,23.79
2018-06-04T08:13:27.583Z,23.80
2018-06-04T08:14:27.594Z,23.76
2018-06-04T08:15:27.641Z,23.84
2018-06-04T08:16:27.611Z,23.83
2018-06-04T08:17:27.649Z,23.88
2018-06-04T08:18:27.635Z,23.87
2018-06-04T08:19:27.657Z,23.93
2018-06-04T08:20:27.683Z,24.00
2018-06-04T08:21:27.660Z,23.97
2018-06-04T08:22:27.713Z,23.91
2018-06-04T08:23:27.704Z,24.05
2018-06-04T08:24:27.782Z,24.06
2018-06-04T08:25:27.717Z,24.15
2018-06-04T08:26:27.761Z,24.10
2018-06-04T08:27:27.797Z,24.10
2018-06-04T08:28:27.813Z,24.21
2018-06-04T08:29:27.828Z,24.20
2018-06-04T08:30:27.764Z,24.09
2018-06-04T08:31:27.821Z,24.25
2018-06-04T08:32:27.781Z,24.39
2018-06-04T08:33:27.852Z,24.37
2018-06-04T08:34:27.850Z,24.32
2018-06-04T08:35:27.868Z,24.34
2018-06-04T08:36:27.889Z,24.39
2018-06-04T08:37:27.840Z,24.42
2018-06-04T08:38:27.938Z,24.32
2018-06-04T08:39:27.852Z,24.47
2018-06-04T08:40:28.403Z,24.49
2018-06-04T08:41:27.874Z,24.58
2018-06-04T08:42:27.889Z,24.62
2018-06-04T08:43:27.901Z,24.46
2018-06-04T08:44:27.920Z,24.49
2018-06-04T08:45:27.921Z,24.64
2018-06-04T08:46:27.975Z,24.64
2018-06-04T08:47:28.017Z,24.68
2018-06-04T08:48:28.034Z,24.73
2018-06-04T08:49:27.977Z,24.65
2018-06-04T08:50:27.982Z,24.68
2018-06-04T08:51:28.008Z,24.87
2018-06-04T08:52:27.992Z,24.95
2018-06-04T08:53:28.007Z,25.02
2018-06-04T08:54:28.044Z,25.02
2018-06-04T08:55:28.043Z,24.96
2018-06-04T08:56:28.052Z,25.02
2018-06-04T08:57:28.063Z,24.96
2018-06-04T08:58:28.099Z,25.03
2018-06-04T08:59:28.100Z,25.17
2018-06-04T09:00:28.109Z,25.06
2018-06-04T09:01:28.100Z,25.05
2018-06-04T09:02:28.160Z,25.05
2018-06-04T09:03:28.144Z,25.00
2018-06-04T09:04:28.193Z,25.20
2018-06-04T09:05:28.211Z,25.15
2018-06-04T09:06:28.154Z,25.27
2018-06-04T09:07:28.168Z,25.32
2018-06-04T09:08:28.178Z,25.38
2018-06-04T09:09:28.183Z,25.46
2018-06-04T09:10:28.196Z,25.50
2018-06-04T09:11:28.215Z,25.47
2018-06-04T09:12:28.226Z,25.50
2018-06-04T09:13:28.233Z,25.47
2018-06-04T09:14:28.260Z,25.55
2018-06-04T09:15:28.274Z,25.52
2018-06-04T09:16:28.266Z,25.57
2018-06-04T09:17:28.285Z,25.55
2018-06-04T09:18:28.293Z,25.61
2018-06-04T09:19:28.305Z,25.64
2018-06-04T09:20:28.341Z,25.64
2018-06-04T09:21:28.328Z,25.75
2018-06-04T09:22:28.333Z,25.67
2018-06-04T09:23:28.340Z,25.87
2018-06-04T09:24:28.356Z,25.80
2018-06-04T09:25:28.368Z,25.90
2018-06-04T09:26:28.379Z,25.77
2018-06-04T09:27:28.400Z,25.90
2018-06-04T09:28:28.436Z,25.83
2018-06-04T09:29:28.443Z,25.90
2018-06-04T09:30:28.461Z,25.92
2018-06-04T09:31:28.443Z,25.95
2018-06-04T09:32:28.449Z,25.98
2018-06-04T09:33:28.471Z,26.20
2018-06-04T09:34:28.523Z,26.10
2018-06-04T09:35:28.497Z,26.05
2018-06-04T09:36:28.514Z,25.97
2018-06-04T09:37:28.506Z,25.98
2018-06-04T09:38:28.555Z,25.99
2018-06-04T09:39:28.546Z,25.98
2018-06-04T09:40:28.545Z,26.15
2018-06-04T09:41:28.569Z,26.13
2018-06-04T09:42:28.583Z,26.20
2018-06-04T09:43:28.647Z,26.23
2018-06-04T09:44:28.592Z,26.25
2018-06-04T09:45:28.602Z,26.21
2018-06-04T09:46:28.615Z,26.21
2018-06-04T09:47:28.683Z,26.25
2018-06-04T09:48:28.643Z,26.47
2018-06-04T09:49:28.664Z,26.52
2018-06-04T09:50:28.663Z,26.40
2018-06-04T09:51:28.700Z,26.48
2018-06-04T09:52:28.739Z,26.50
2018-06-04T09:53:28.809Z,26.55
2018-06-04T09:54:28.710Z,26.62
2018-06-04T09:55:28.751Z,26.54
2018-06-04T09:56:28.779Z,26.66
2018-06-04T09:57:28.769Z,26.77
2018-06-04T09:58:28.784Z,26.80
2018-06-04T09:59:28.771Z,26.84
2018-06-04T10:00:28.795Z,26.95
2018-06-04T10:01:28.804Z,26.89
2018-06-04T10:02:28.825Z,26.85
2018-06-04T10:03:28.826Z,26.94
2018-06-04T10:04:28.860Z,27.03
2018-06-04T10:05:28.854Z,27.04
2018-06-04T10:06:28.925Z,27.10
2018-06-04T10:07:28.876Z,27.18
2018-06-04T10:08:28.901Z,27.17
2018-06-04T10:09:28.897Z,27.25
2018-06-04T10:10:28.908Z,27.28
2018-06-04T10:11:28.923Z,27.31
2018-06-04T10:12:28.936Z,27.32
2018-06-04T10:13:28.972Z,27.25
2018-06-04T10:14:28.984Z,27.31
2018-06-04T10:15:28.988Z,27.37
2018-06-04T10:16:29.020Z,27.49
2018-06-04T10:17:29.074Z,27.50
2018-06-04T10:18:29.128Z,27.51
2018-06-04T10:19:29.091Z,27.69
2018-06-04T10:20:29.066Z,27.69
2018-06-04T10:21:29.078Z,27.70
2018-06-04T10:22:29.135Z,27.79
2018-06-04T10:23:29.084Z,27.84
2018-06-04T10:24:29.109Z,27.82
2018-06-04T10:25:29.107Z,27.93
2018-06-04T10:26:29.123Z,27.93
2018-06-04T10:27:29.150Z,27.96
2018-06-04T10:28:29.146Z,28.02
2018-06-04T10:29:29.173Z,28.07
2018-06-04T10:30:29.169Z,28.09
2018-06-04T10:31:29.191Z,28.18
2018-06-04T10:32:29.213Z,28.27
2018-06-04T10:33:29.333Z,28.33
2018-06-04T10:34:29.257Z,28.29
2018-06-04T10:35:29.240Z,28.40
2018-06-04T10:36:29.261Z,28.40
2018-06-04T10:37:29.269Z,28.55
2018-06-04T10:38:29.279Z,28.61
2018-06-04T10:39:29.295Z,28.59
2018-06-04T10:40:29.338Z,28.64
2018-06-04T10:41:29.323Z,28.71
2018-06-04T10:42:29.337Z,28.67
2018-06-04T10:43:29.349Z,28.80
2018-06-04T10:44:29.372Z,28.70
2018-06-04T10:45:29.373Z,28.81
2018-06-04T10:46:29.394Z,28.83
2018-06-04T10:47:29.427Z,28.86
2018-06-04T10:48:29.416Z,28.88
2018-06-04T10:49:29.436Z,28.81
2018-06-04T10:50:29.444Z,28.70
2018-06-04T10:51:29.461Z,28.71
2018-06-04T10:52:29.478Z,28.81
2018-06-04T10:53:29.492Z,28.92
2018-06-04T10:54:29.502Z,29.11
2018-06-04T10:55:29.519Z,29.06
2018-06-04T10:56:29.555Z,29.14
2018-06-04T10:57:29.603Z,29.15
2018-06-04T10:58:29.634Z,29.16
2018-06-04T10:59:29.582Z,29.34
2018-06-04T11:00:29.603Z,29.27
2018-06-04T11:01:29.606Z,29.31
2018-06-04T11:02:29.622Z,29.31
2018-06-04T11:03:29.640Z,29.41
2018-06-04T11:04:29.649Z,29.42
2018-06-04T11:05:29.658Z,29.34
2018-06-04T11:06:29.673Z,29.30
2018-06-04T11:07:29.693Z,29.45
2018-06-04T11:08:29.812Z,29.37
2018-06-04T11:09:29.940Z,29.48
2018-06-04T11:10:29.760Z,29.53
2018-06-04T11:11:29.877Z,29.65
2018-06-04T11:12:29.889Z,29.63
2018-06-04T11:13:29.956Z,29.68
2018-06-04T11:14:29.870Z,29.71
2018-06-04T11:15:30.090Z,29.74
2018-06-04T11:16:29.935Z,29.79
2018-06-04T11:17:29.933Z,29.73
2018-06-04T11:18:29.864Z,29.71
2018-06-04T11:19:29.885Z,29.70
2018-06-04T11:20:29.942Z,29.65
2018-06-04T11:21:29.901Z,29.71
2018-06-04T11:22:29.914Z,29.78
2018-06-04T11:23:29.959Z,29.61
2018-06-04T11:24:29.964Z,29.57
2018-06-04T11:25:29.978Z,29.61
2018-06-04T11:26:29.982Z,29.67
2018-06-04T11:27:30.013Z,29.68
2018-06-04T11:28:30.012Z,29.73
2018-06-04T11:29:30.018Z,29.70
2018-06-04T11:30:30.209Z,29.71
2018-06-04T11:31:30.085Z,29.63
2018-06-04T11:32:30.064Z,29.64
2018-06-04T11:33:30.105Z,29.64
2018-06-04T11:34:30.103Z,29.68
2018-06-04T11:35:30.128Z,29.63
2018-06-04T11:36:30.125Z,29.55
2018-06-04T11:37:30.174Z,29.53
2018-06-04T11:38:30.148Z,29.65
2018-06-04T11:39:30.176Z,29.64
2018-06-04T11:40:30.189Z,29.67
2018-06-04T11:41:30.199Z,29.73
2018-06-04T11:42:30.211Z,29.68
2018-06-04T11:43:30.254Z,29.64
2018-06-04T11:44:30.237Z,29.61
2018-06-04T11:45:30.256Z,29.57
2018-06-04T11:46:30.270Z,29.67
2018-06-04T11:47:30.281Z,29.70
2018-06-04T11:48:30.300Z,29.33
2018-06-04T11:49:30.315Z,29.30
2018-06-04T11:50:30.332Z,29.36
2018-06-04T11:51:30.367Z,29.34
2018-06-04T11:52:30.373Z,29.43
2018-06-04T11:53:30.440Z,29.41
2018-06-04T11:54:30.421Z,29.37
2018-06-04T11:55:30.405Z,29.34
2018-06-04T11:56:30.471Z,29.08
2018-06-04T11:57:30.467Z,29.16
2018-06-04T11:58:30.466Z,29.34
2018-06-04T11:59:30.487Z,29.31
2018-06-04T12:00:30.476Z,29.37
2018-06-04T12:01:30.494Z,29.33
2018-06-04T12:02:30.506Z,29.52
2018-06-04T12:03:30.529Z,29.39
2018-06-04T12:04:30.540Z,29.48
2018-06-04T12:05:30.562Z,29.61
2018-06-04T12:06:30.570Z,29.76
2018-06-04T12:07:30.591Z,29.68
2018-06-04T12:08:30.601Z,29.74
2018-06-04T12:09:30.619Z,29.92
2018-06-04T12:10:30.627Z,29.82
2018-06-04T12:11:30.720Z,29.79
2018-06-04T12:12:30.763Z,29.86
2018-06-04T12:13:30.672Z,29.89
2018-06-04T12:14:30.692Z,29.78
2018-06-04T12:15:30.705Z,29.89
2018-06-04T12:16:30.719Z,29.94
2018-06-04T12:17:30.755Z,30.04
2018-06-04T12:18:30.754Z,30.05
2018-06-04T12:19:30.791Z,30.00
2018-06-04T12:20:30.792Z,29.92
2018-06-04T12:21:30.795Z,29.97
2018-06-04T12:22:30.838Z,30.05
2018-06-04T12:23:30.823Z,30.19
2018-06-04T12:24:30.851Z,30.10
2018-06-04T12:25:30.866Z,30.11
2018-06-04T12:26:30.870Z,30.23
2018-06-04T12:27:30.903Z,30.24
2018-06-04T12:28:30.905Z,30.19
2018-06-04T12:29:30.918Z,30.15
2018-06-04T12:30:30.978Z,30.22
2018-06-04T12:31:30.982Z,30.24
2018-06-04T12:32:30.999Z,30.23
2018-06-04T12:33:30.978Z,30.38
2018-06-04T12:34:31.032Z,30.35
2018-06-04T12:35:31.026Z,30.43
2018-06-04T12:36:31.060Z,30.38
2018-06-04T12:37:31.069Z,30.47
2018-06-04T12:38:31.054Z,30.46
2018-06-04T12:39:31.074Z,30.43
2018-06-04T12:40:31.096Z,30.57
2018-06-04T12:41:31.102Z,30.60
2018-06-04T12:42:31.127Z,30.55
2018-06-04T12:43:31.136Z,30.37
2018-06-04T12:44:31.149Z,30.11
2018-06-04T12:45:31.163Z,30.27
2018-06-04T12:46:31.184Z,30.42
2018-06-04T12:47:31.199Z,30.27
2018-06-04T12:48:31.216Z,30.45
2018-06-04T12:49:31.222Z,30.35
2018-06-04T12:50:31.254Z,30.43
2018-06-04T12:51:31.257Z,30.61
2018-06-04T12:52:31.280Z,30.62